createdAt,value
2023-01-19T00:00:44.221Z,95537.16
2023-01-19T00:03:16.131Z,95544.47
2023-01-19T00:05:44.593Z,95543.81
2023-01-19T00:08:15.552Z,95541.50
2023-01-19T00:10:44.774Z,95548.53
2023-01-19T00:13:16.146Z,95546.41
2023-01-19T00:15:43.948Z,95544.25
2023-01-19T00:18:11.513Z,95550.78
2023-01-19T00:20:39.037Z,95551.28
2023-01-19T00:23:07.979Z,95550.34
2023-01-19T00:25:35.823Z,95558.03
2023-01-19T00:28:03.503Z,95555.59
2023-01-19T00:30:32.332Z,95564.00
2023-01-19T00:33:00.387Z,95571.56
2023-01-19T00:35:28.160Z,95564.84
2023-01-19T00:37:56.784Z,95567.16
2023-01-19T00:40:24.313Z,95563.53
2023-01-19T00:42:50.854Z,95564.06
2023-01-19T00:45:19.840Z,95576.88
2023-01-19T00:47:50.251Z,95576.88
2023-01-19T00:50:18.658Z,95579.69
2023-01-19T00:52:46.291Z,95574.97
2023-01-19T00:55:15.493Z,95573.50
2023-01-19T00:57:43.956Z,95577.81
2023-01-19T01:00:14.138Z,95586.97
2023-01-19T01:02:43.640Z,95581.72
2023-01-19T01:05:13.447Z,95578.38
2023-01-19T01:07:41.834Z,95578.22
2023-01-19T01:10:10.646Z,95584.81
2023-01-19T01:12:39.149Z,95587.25
2023-01-19T01:15:08.665Z,95587.09
2023-01-19T01:17:36.228Z,95583.59
2023-01-19T01:20:04.734Z,95584.50
2023-01-19T01:22:33.687Z,95586.38
2023-01-19T01:25:01.258Z,95587.97
2023-01-19T01:27:28.811Z,95583.94
2023-01-19T01:29:56.343Z,95588.22
2023-01-19T01:32:23.898Z,95582.97
2023-01-19T01:34:51.421Z,95589.41
2023-01-19T01:37:19.025Z,95594.09
2023-01-19T01:39:47.884Z,95586.94
2023-01-19T01:42:18.322Z,95590.47
2023-01-19T01:44:52.085Z,95598.13
2023-01-19T01:47:24.892Z,95601.38
2023-01-19T01:49:54.301Z,95598.94
2023-01-19T01:52:25.067Z,95605.84
2023-01-19T01:54:54.067Z,95600.88
2023-01-19T01:57:23.100Z,95600.94
2023-01-19T01:59:51.611Z,95606.03
2023-01-19T02:02:39.793Z,95602.84
2023-01-19T02:05:10.469Z,95607.28
2023-01-19T02:08:04.898Z,95612.53
2023-01-19T02:10:52.386Z,95600.28
2023-01-19T02:13:22.965Z,95599.09
2023-01-19T02:15:52.604Z,95610.69
2023-01-19T02:18:21.255Z,95609.16
2023-01-19T02:20:57.732Z,95609.16
2023-01-19T02:23:43.825Z,95606.97
2023-01-19T02:26:15.310Z,95615.81
2023-01-19T02:28:46.139Z,95618.47
2023-01-19T02:31:15.104Z,95619.38
2023-01-19T02:33:42.818Z,95627.94
2023-01-19T02:36:13.391Z,95632.84
2023-01-19T02:38:44.975Z,95634.72
2023-01-19T02:41:16.865Z,95628.69
2023-01-19T02:43:45.486Z,95625.97
2023-01-19T02:46:15.508Z,95627.41
2023-01-19T02:48:43.795Z,95625.34
2023-01-19T02:51:15.552Z,95630.97
2023-01-19T02:54:14.671Z,95623.09
2023-01-19T02:57:01.289Z,95626.88
2023-01-19T02:59:44.978Z,95632.19
2023-01-19T03:02:22.991Z,95636.41
2023-01-19T03:05:00.984Z,95631.53
2023-01-19T03:07:41.613Z,95631.09
2023-01-19T03:10:18.293Z,95633.06
2023-01-19T03:12:51.763Z,95631.00
2023-01-19T03:15:24.052Z,95634.63
2023-01-19T03:17:54.125Z,95635.78
2023-01-19T03:20:25.472Z,95638.59
2023-01-19T03:22:56.592Z,95632.22
2023-01-19T03:25:26.641Z,95641.91
2023-01-19T03:27:58.503Z,95644.66
2023-01-19T03:30:29.920Z,95641.78
2023-01-19T03:33:03.185Z,95642.06
2023-01-19T03:35:35.636Z,95646.72
2023-01-19T03:38:08.616Z,95647.53
2023-01-19T03:40:38.052Z,95650.63
2023-01-19T03:43:06.871Z,95657.47
2023-01-19T03:45:37.837Z,95655.50
2023-01-19T03:48:06.130Z,95662.31
2023-01-19T03:50:33.825Z,95661.56
2023-01-19T03:53:03.666Z,95659.28
2023-01-19T03:55:31.182Z,95655.34
2023-01-19T03:58:00.152Z,95658.00
2023-01-19T04:00:27.699Z,95657.75
2023-01-19T04:02:55.435Z,95648.38
2023-01-19T04:05:23.247Z,95655.81
2023-01-19T04:07:50.994Z,95650.50
2023-01-19T04:10:19.236Z,95652.72
2023-01-19T04:12:47.055Z,95659.69
2023-01-19T04:15:16.730Z,95660.28
2023-01-19T04:17:44.249Z,95655.88
2023-01-19T04:20:12.122Z,95654.59
2023-01-19T04:22:40.111Z,95659.25
2023-01-19T04:25:09.063Z,95663.06
2023-01-19T04:27:36.661Z,95659.97
2023-01-19T04:30:04.639Z,95666.78
2023-01-19T04:32:33.842Z,95664.38
2023-01-19T04:35:01.359Z,95660.19
2023-01-19T04:37:28.935Z,95653.34
2023-01-19T04:39:56.457Z,95653.03
2023-01-19T04:42:23.936Z,95654.50
2023-01-19T04:44:52.567Z,95661.34
2023-01-19T04:47:20.098Z,95655.56
2023-01-19T04:49:48.945Z,95651.75
2023-01-19T04:52:16.431Z,95655.72
2023-01-19T04:54:43.926Z,95655.22
2023-01-19T04:57:11.434Z,95656.53
2023-01-19T04:59:38.995Z,95660.13
2023-01-19T05:02:06.539Z,95672.19
2023-01-19T05:04:34.076Z,95667.88
2023-01-19T05:07:02.941Z,95668.25
2023-01-19T05:09:30.625Z,95673.81
2023-01-19T05:11:58.155Z,95680.88
2023-01-19T05:14:25.669Z,95678.22
2023-01-19T05:16:53.238Z,95676.25
2023-01-19T05:19:21.123Z,95683.44
2023-01-19T05:21:48.761Z,95689.09
2023-01-19T05:24:18.342Z,95687.47
2023-01-19T05:26:45.789Z,95689.34
2023-01-19T05:29:13.681Z,95688.53
2023-01-19T05:31:41.259Z,95675.09
2023-01-19T05:34:11.798Z,95683.75
2023-01-19T05:36:39.866Z,95690.94
2023-01-19T05:39:07.577Z,95691.88
2023-01-19T05:41:36.849Z,95691.41
2023-01-19T05:44:04.559Z,95701.84
2023-01-19T05:46:32.263Z,95701.13
2023-01-19T05:49:01.636Z,95702.50
2023-01-19T05:51:34.846Z,95705.53
2023-01-19T05:54:02.466Z,95706.81
2023-01-19T05:56:30.366Z,95706.81
2023-01-19T05:59:01.659Z,95705.53
2023-01-19T06:01:29.375Z,95710.16
2023-01-19T06:03:58.301Z,95712.72
2023-01-19T06:06:26.053Z,95711.81
2023-01-19T06:08:53.546Z,95708.09
2023-01-19T06:11:21.911Z,95711.78
2023-01-19T06:13:49.716Z,95717.31
2023-01-19T06:16:28.250Z,95719.19
2023-01-19T06:18:56.049Z,95715.94
2023-01-19T06:21:24.062Z,95721.97
2023-01-19T06:23:51.578Z,95715.03
2023-01-19T06:26:19.077Z,95715.03
2023-01-19T06:28:46.565Z,95717.31
2023-01-19T06:31:14.094Z,95721.97
2023-01-19T06:33:43.015Z,95716.41
2023-01-19T06:36:10.724Z,95714.97
2023-01-19T06:38:38.214Z,95717.75
2023-01-19T06:41:05.984Z,95726.00
2023-01-19T06:43:33.442Z,95728.19
2023-01-19T06:46:01.707Z,95729.31
2023-01-19T06:48:30.392Z,95731.50
2023-01-19T06:50:59.934Z,95727.44
2023-01-19T06:53:30.125Z,95728.53
2023-01-19T06:55:59.868Z,95737.13
2023-01-19T06:58:27.888Z,95734.47
2023-01-19T07:00:56.182Z,95745.88
2023-01-19T07:03:24.345Z,95753.72
2023-01-19T07:05:52.654Z,95753.97
2023-01-19T07:08:21.658Z,95748.28
2023-01-19T07:11:26.262Z,95747.03
2023-01-19T07:13:38.471Z,95755.59
2023-01-19T07:16:08.162Z,95755.34
2023-01-19T07:18:35.856Z,95769.72
2023-01-19T07:21:03.433Z,95762.19
2023-01-19T07:23:32.599Z,95763.69
2023-01-19T07:26:01.679Z,95766.81
2023-01-19T07:28:29.748Z,95764.84
2023-01-19T07:30:57.693Z,95766.81
2023-01-19T07:33:25.810Z,95767.59
2023-01-19T07:35:54.369Z,95768.84
2023-01-19T07:38:22.523Z,95766.88
2023-01-19T07:40:51.344Z,95770.47
2023-01-19T07:43:19.388Z,95771.97
2023-01-19T07:45:46.953Z,95761.88
2023-01-19T07:48:14.425Z,95771.28
2023-01-19T07:50:41.872Z,95764.91
2023-01-19T07:53:11.709Z,95768.84
2023-01-19T07:55:39.226Z,95772.78
2023-01-19T07:58:08.108Z,95780.53
2023-01-19T08:00:36.585Z,95785.06
2023-01-19T08:03:05.253Z,95786.13
2023-01-19T08:05:34.078Z,95791.47
2023-01-19T08:08:01.821Z,95792.28
2023-01-19T08:10:29.901Z,95797.38
2023-01-19T08:12:59.345Z,95796.31
2023-01-19T08:15:28.666Z,95795.28
2023-01-19T08:17:57.693Z,95805.13
2023-01-19T08:20:25.768Z,95809.06
2023-01-19T08:22:59.808Z,95810.34
2023-01-19T08:25:33.045Z,95811.34
2023-01-19T08:28:01.048Z,95813.88
2023-01-19T08:30:30.380Z,95811.00
2023-01-19T08:33:04.127Z,95811.91
2023-01-19T08:35:32.050Z,95811.16
2023-01-19T08:38:01.540Z,95806.81
2023-01-19T08:40:29.624Z,95810.81
2023-01-19T08:43:00.964Z,95817.09
2023-01-19T08:45:30.913Z,95802.06
2023-01-19T08:47:59.031Z,95813.41
2023-01-19T08:50:27.051Z,95803.84
2023-01-19T08:52:56.857Z,95800.69
2023-01-19T08:55:24.353Z,95804.50
2023-01-19T08:57:53.545Z,95803.91
2023-01-19T09:00:22.481Z,95808.41
2023-01-19T09:02:51.522Z,95810.28
2023-01-19T09:05:19.319Z,95801.00
2023-01-19T09:07:47.984Z,95805.56
2023-01-19T09:10:16.198Z,95798.06
2023-01-19T09:12:44.864Z,95804.53
2023-01-19T09:15:13.945Z,95801.97
2023-01-19T09:17:42.110Z,95804.69
2023-01-19T09:20:11.967Z,95800.78
2023-01-19T09:22:39.529Z,95800.78
2023-01-19T09:25:08.235Z,95793.78
2023-01-19T09:27:36.673Z,95804.59
2023-01-19T09:30:05.171Z,95803.75
2023-01-19T09:32:32.672Z,95807.38
2023-01-19T09:35:00.234Z,95806.16
2023-01-19T09:37:29.068Z,95815.34
2023-01-19T09:39:56.628Z,95816.44
2023-01-19T09:42:28.514Z,95821.25
2023-01-19T09:44:56.024Z,95819.88
2023-01-19T09:47:28.392Z,95820.47
2023-01-19T09:49:59.806Z,95825.41
2023-01-19T09:52:29.718Z,95821.28
2023-01-19T09:54:59.011Z,95826.38
2023-01-19T09:57:28.339Z,95827.38
2023-01-19T09:59:59.428Z,95826.97
2023-01-19T10:02:36.687Z,95834.59
2023-01-19T10:05:06.381Z,95825.13
2023-01-19T10:07:48.756Z,95825.84
2023-01-19T10:10:21.776Z,95828.06
2023-01-19T10:13:04.911Z,95828.34
2023-01-19T10:15:41.718Z,95830.25
2023-01-19T10:18:17.605Z,95828.53
2023-01-19T10:20:50.040Z,95822.41
2023-01-19T10:23:40.572Z,95816.91
2023-01-19T10:26:14.674Z,95819.00
2023-01-19T10:28:42.600Z,95817.00
2023-01-19T10:31:10.402Z,95812.50
2023-01-19T10:33:39.462Z,95807.72
2023-01-19T10:36:16.414Z,95810.06
2023-01-19T10:38:45.969Z,95808.56
2023-01-19T10:41:18.824Z,95808.44
2023-01-19T10:43:47.173Z,95816.44
2023-01-19T10:46:22.653Z,95820.66
2023-01-19T10:48:51.979Z,95809.25
2023-01-19T10:51:19.910Z,95807.94
2023-01-19T10:53:58.303Z,95811.00
2023-01-19T10:56:29.090Z,95811.88
2023-01-19T10:58:56.618Z,95808.38
2023-01-19T11:01:26.537Z,95806.63
2023-01-19T11:03:57.058Z,95806.31
2023-01-19T11:06:27.687Z,95811.16
2023-01-19T11:09:11.730Z,95806.97
2023-01-19T11:11:44.628Z,95808.94
2023-01-19T11:14:14.977Z,95812.19
2023-01-19T11:16:48.198Z,95809.66
2023-01-19T11:19:23.106Z,95808.88
2023-01-19T11:21:50.625Z,95808.88
2023-01-19T11:24:20.060Z,95805.31
2023-01-19T11:26:51.219Z,95802.06
2023-01-19T11:29:23.224Z,95801.63
2023-01-19T11:31:52.373Z,95799.56
2023-01-19T11:34:26.698Z,95810.44
2023-01-19T11:36:59.279Z,95803.88
2023-01-19T11:39:30.291Z,95798.28
2023-01-19T11:42:01.632Z,95805.84
2023-01-19T11:44:33.472Z,95799.63
2023-01-19T11:47:05.828Z,95794.16
2023-01-19T11:49:41.536Z,95794.03
2023-01-19T11:52:19.220Z,95790.31
2023-01-19T11:54:53.195Z,95794.22
2023-01-19T11:57:20.754Z,95786.78
2023-01-19T11:59:49.730Z,95786.00
2023-01-19T12:02:24.962Z,95786.66
2023-01-19T12:04:57.231Z,95789.56
2023-01-19T12:07:30.020Z,95777.44
2023-01-19T12:10:04.457Z,95786.94
2023-01-19T12:12:35.248Z,95791.41
2023-01-19T12:15:07.736Z,95783.69
2023-01-19T12:17:38.605Z,95789.53
2023-01-19T12:20:14.895Z,95792.75
2023-01-19T12:22:50.738Z,95786.47
2023-01-19T12:25:23.733Z,95786.13
2023-01-19T12:27:52.763Z,95780.19
2023-01-19T12:30:24.008Z,95774.88
2023-01-19T12:32:52.097Z,95767.78
2023-01-19T12:35:57.841Z,95774.06
2023-01-19T12:38:36.461Z,95777.44
2023-01-19T12:41:19.901Z,95778.41
2023-01-19T12:43:48.096Z,95784.69
2023-01-19T12:46:21.058Z,95777.91
2023-01-19T12:48:48.632Z,95777.25
2023-01-19T12:51:24.202Z,95781.25
2023-01-19T12:53:54.123Z,95779.44
2023-01-19T12:56:29.692Z,95776.88
2023-01-19T12:58:57.513Z,95783.44
2023-01-19T13:01:26.934Z,95784.56
2023-01-19T13:04:09.106Z,95782.13
2023-01-19T13:07:17.830Z,95777.81
2023-01-19T13:09:45.371Z,95781.94
2023-01-19T13:12:22.847Z,95787.75
2023-01-19T13:14:51.252Z,95779.72
2023-01-19T13:17:29.337Z,95781.66
2023-01-19T13:20:05.927Z,95784.88
2023-01-19T13:22:52.118Z,95781.16
2023-01-19T13:25:30.324Z,95780.34
2023-01-19T13:27:59.605Z,95767.75
2023-01-19T13:30:29.012Z,95770.66
2023-01-19T13:33:02.354Z,95775.81
2023-01-19T13:35:29.815Z,95774.19
2023-01-19T13:37:59.162Z,95774.19
2023-01-19T13:40:37.052Z,95782.75
2023-01-19T13:43:15.657Z,95777.22
2023-01-19T13:45:50.693Z,95787.34
2023-01-19T13:48:22.372Z,95790.88
2023-01-19T13:51:02.176Z,95781.53
2023-01-19T13:53:30.358Z,95790.22
2023-01-19T13:56:18.060Z,95790.69
2023-01-19T13:58:58.605Z,95800.63
2023-01-19T14:01:29.096Z,95797.84
2023-01-19T14:03:57.088Z,95798.94
2023-01-19T14:06:36.801Z,95801.16
2023-01-19T14:09:17.588Z,95807.75
2023-01-19T14:11:46.566Z,95804.91
2023-01-19T14:14:29.038Z,95810.72
2023-01-19T14:16:56.595Z,95813.44
2023-01-19T14:19:24.463Z,95802.47
2023-01-19T14:22:03.140Z,95806.31
2023-01-19T14:24:32.958Z,95812.88
2023-01-19T14:27:19.157Z,95816.84
2023-01-19T14:29:50.594Z,95818.75
2023-01-19T14:32:20.492Z,95805.38
2023-01-19T14:34:50.173Z,95811.94
2023-01-19T14:37:23.729Z,95814.00
2023-01-19T14:39:52.497Z,95814.97
2023-01-19T14:42:25.878Z,95810.41
2023-01-19T14:44:57.299Z,95820.38
2023-01-19T14:47:31.894Z,95823.66
2023-01-19T14:50:07.377Z,95826.59
2023-01-19T14:52:39.083Z,95827.19
2023-01-19T14:55:17.113Z,95823.59
2023-01-19T14:57:44.603Z,95828.38
2023-01-19T15:00:17.677Z,95823.69
2023-01-19T15:02:45.441Z,95821.25
2023-01-19T15:05:13.826Z,95815.44
2023-01-19T15:07:44.430Z,95819.25
2023-01-19T15:10:18.270Z,95825.19
2023-01-19T15:12:46.196Z,95823.44
2023-01-19T15:15:22.588Z,95822.47
2023-01-19T15:17:50.795Z,95825.06
2023-01-19T15:20:21.001Z,95826.03
2023-01-19T15:22:48.869Z,95821.81
2023-01-19T15:25:18.006Z,95825.50
2023-01-19T15:27:46.763Z,95816.69
2023-01-19T15:30:18.698Z,95826.16
2023-01-19T15:32:46.400Z,95827.09
2023-01-19T15:35:15.340Z,95813.88
2023-01-19T15:37:42.880Z,95810.50
2023-01-19T15:40:11.779Z,95816.44
2023-01-19T15:42:40.147Z,95824.03
2023-01-19T15:45:36.129Z,95813.88
2023-01-19T15:48:05.944Z,95818.22
2023-01-19T15:50:34.653Z,95816.75
2023-01-19T15:53:02.479Z,95813.06
2023-01-19T15:55:30.269Z,95811.44
2023-01-19T15:58:01.678Z,95821.91
2023-01-19T16:00:32.484Z,95819.75
2023-01-19T16:03:01.425Z,95822.75
2023-01-19T16:05:41.949Z,95821.13
2023-01-19T16:08:10.417Z,95825.47
2023-01-19T16:10:37.997Z,95825.47
2023-01-19T16:13:05.603Z,95827.06
2023-01-19T16:15:35.730Z,95827.88
2023-01-19T16:18:03.357Z,95818.88
2023-01-19T16:20:30.957Z,95817.22
2023-01-19T16:23:09.607Z,95821.44
2023-01-19T16:25:41.461Z,95818.44
2023-01-19T16:28:09.245Z,95827.38
2023-01-19T16:30:38.129Z,95829.28
2023-01-19T16:33:05.803Z,95826.03
2023-01-19T16:35:33.257Z,95825.00
2023-01-19T16:38:00.704Z,95825.94
2023-01-19T16:40:28.458Z,95826.91
2023-01-19T16:42:55.973Z,95826.38
2023-01-19T16:45:23.489Z,95826.94
2023-01-19T16:47:52.345Z,95825.91
2023-01-19T16:50:20.376Z,95819.44
2023-01-19T16:52:47.880Z,95827.94
2023-01-19T16:55:15.370Z,95831.03
2023-01-19T16:57:42.889Z,95823.19
2023-01-19T17:00:11.732Z,95828.16
2023-01-19T17:02:39.368Z,95832.38
2023-01-19T17:05:09.521Z,95824.53
2023-01-19T17:07:37.091Z,95831.56
2023-01-19T17:10:05.482Z,95833.75
2023-01-19T17:12:32.988Z,95827.25
2023-01-19T17:15:00.491Z,95836.22
2023-01-19T17:17:28.029Z,95829.47
2023-01-19T17:19:55.489Z,95833.00
2023-01-19T17:22:24.302Z,95834.88
2023-01-19T17:24:51.799Z,95828.41
2023-01-19T17:27:19.280Z,95837.47
2023-01-19T17:29:49.175Z,95828.59
2023-01-19T17:32:17.329Z,95831.16
2023-01-19T17:34:46.583Z,95838.19
2023-01-19T17:37:14.088Z,95835.88
2023-01-19T17:39:42.966Z,95834.28
2023-01-19T17:42:10.685Z,95837.09
2023-01-19T17:44:38.193Z,95835.78
2023-01-19T17:47:05.738Z,95836.84
2023-01-19T17:49:33.384Z,95837.94
2023-01-19T17:52:00.848Z,95840.00
2023-01-19T17:54:28.539Z,95848.38
2023-01-19T17:56:57.365Z,95843.41
2023-01-19T17:59:24.901Z,95845.03
2023-01-19T18:01:52.395Z,95839.09
2023-01-19T18:04:19.864Z,95841.81
2023-01-19T18:06:49.039Z,95840.47
2023-01-19T18:09:16.866Z,95841.66
2023-01-19T18:11:45.291Z,95841.25
2023-01-19T18:14:14.379Z,95848.53
2023-01-19T18:16:41.865Z,95844.78
2023-01-19T18:19:09.443Z,95845.19
2023-01-19T18:21:38.039Z,95843.28
2023-01-19T18:26:42.522Z,95841.41
2023-01-19T18:29:10.512Z,95838.31
2023-01-19T18:31:44.297Z,95835.34
2023-01-19T18:34:12.121Z,95843.44
2023-01-19T18:36:39.890Z,95842.91
2023-01-19T18:39:09.528Z,95838.97
2023-01-19T18:41:41.627Z,95843.44
2023-01-19T18:44:09.871Z,95843.72
2023-01-19T18:46:40.394Z,95840.19
2023-01-19T18:49:09.783Z,95844.50
2023-01-19T18:51:39.570Z,95844.38
2023-01-19T18:54:08.166Z,95846.94
2023-01-19T18:56:36.168Z,95840.88
2023-01-19T18:59:05.271Z,95846.00
2023-01-19T19:01:36.055Z,95847.63
2023-01-19T19:04:07.201Z,95842.34
2023-01-19T19:06:35.837Z,95848.03
2023-01-19T19:09:03.689Z,95840.72
2023-01-19T19:11:31.479Z,95837.50
2023-01-19T19:14:01.448Z,95838.03
2023-01-19T19:16:30.060Z,95838.03
2023-01-19T19:19:01.499Z,95842.34
2023-01-19T19:21:30.582Z,95841.53
2023-01-19T19:23:59.697Z,95841.25
2023-01-19T19:26:28.253Z,95848.56
2023-01-19T19:28:56.157Z,95849.09
2023-01-19T19:31:26.324Z,95842.88
2023-01-19T19:33:58.982Z,95842.63
2023-01-19T19:36:28.832Z,95849.91
2023-01-19T19:38:59.692Z,95850.31
2023-01-19T19:41:28.936Z,95852.31
2023-01-19T19:43:59.567Z,95851.53
2023-01-19T19:46:27.828Z,95860.81
2023-01-19T19:48:55.859Z,95856.38
2023-01-19T19:51:25.545Z,95865.28
2023-01-19T19:53:54.483Z,95857.72
2023-01-19T19:56:25.260Z,95856.88
2023-01-19T19:58:56.006Z,95864.97
2023-01-19T20:01:27.631Z,95857.94
2023-01-19T20:03:56.686Z,95859.84
2023-01-19T20:06:25.994Z,95861.72
2023-01-19T20:08:55.901Z,95860.94
2023-01-19T20:11:27.870Z,95867.81
2023-01-19T20:13:55.898Z,95862.81
2023-01-19T20:16:24.370Z,95869.16
2023-01-19T20:18:55.409Z,95877.16
2023-01-19T20:21:25.235Z,95870.56
2023-01-19T20:23:53.959Z,95866.63
2023-01-19T20:26:27.827Z,95873.66
2023-01-19T20:29:03.390Z,95872.56
2023-01-19T20:31:33.869Z,95875.00
2023-01-19T20:34:05.393Z,95875.81
2023-01-19T20:36:33.585Z,95874.03
2023-01-19T20:39:08.542Z,95875.81
2023-01-19T20:41:43.327Z,95876.63
2023-01-19T20:44:13.147Z,95874.72
2023-01-19T20:46:41.233Z,95874.44
2023-01-19T20:49:08.902Z,95878.34
2023-01-19T20:51:37.501Z,95879.97
2023-01-19T20:54:05.263Z,95875.09
2023-01-19T20:56:33.098Z,95879.31
2023-01-19T20:59:02.750Z,95882.00
2023-01-19T21:01:30.671Z,95876.06
2023-01-19T21:03:58.370Z,95880.41
2023-01-19T21:06:26.064Z,95877.66
2023-01-19T21:08:53.739Z,95883.47
2023-01-19T21:11:23.964Z,95885.25
2023-01-19T21:13:55.594Z,95882.81
2023-01-19T21:16:26.206Z,95887.13
2023-01-19T21:18:54.465Z,95890.25
2023-01-19T21:21:30.494Z,95888.88
2023-01-19T21:23:59.475Z,95891.97
2023-01-19T21:26:29.629Z,95902.25
2023-01-19T21:29:17.418Z,95893.50
2023-01-19T21:31:49.148Z,95899.84
2023-01-19T21:34:20.673Z,95896.84
2023-01-19T21:36:51.163Z,95904.16
2023-01-19T21:39:18.872Z,95901.72
2023-01-19T21:41:49.340Z,95904.16
2023-01-19T21:44:20.328Z,95900.25
2023-01-19T21:46:49.339Z,95902.53
2023-01-19T21:49:19.135Z,95908.47
2023-01-19T21:51:48.110Z,95905.50
2023-01-19T21:54:22.133Z,95898.47
2023-01-19T21:56:49.753Z,95906.03
2023-01-19T21:59:19.685Z,95909.16
2023-01-19T22:01:49.560Z,95902.94
2023-01-19T22:04:17.981Z,95910.34
2023-01-19T22:06:45.600Z,95909.41
2023-01-19T22:09:13.208Z,95918.03
2023-01-19T22:11:40.780Z,95919.00
2023-01-19T22:14:08.360Z,95919.94
2023-01-19T22:16:36.391Z,95917.53
2023-01-19T22:19:18.477Z,95924.13
2023-01-19T22:21:46.965Z,95920.59
2023-01-19T22:24:14.611Z,95926.41
2023-01-19T22:26:42.327Z,95918.47
2023-01-19T22:29:11.233Z,95923.31
2023-01-19T22:31:45.809Z,95928.44
2023-01-19T22:34:20.980Z,95923.47
2023-01-19T22:36:49.592Z,95922.78
2023-01-19T22:39:22.007Z,95926.84
2023-01-19T22:41:49.671Z,95927.63
2023-01-19T22:44:20.773Z,95929.41
2023-01-19T22:46:51.258Z,95925.75
2023-01-19T22:49:20.356Z,95924.00
2023-01-19T22:51:48.140Z,95928.97
2023-01-19T22:54:16.307Z,95933.19
2023-01-19T22:56:43.879Z,95922.50
2023-01-19T22:59:11.500Z,95921.69
2023-01-19T23:01:40.461Z,95923.03
2023-01-19T23:04:09.956Z,95918.03
2023-01-19T23:06:39.049Z,95919.00
2023-01-19T23:09:09.211Z,95926.03
2023-01-19T23:11:39.463Z,95926.03
2023-01-19T23:14:09.663Z,95925.22
2023-01-19T23:16:37.404Z,95926.41
2023-01-19T23:19:05.736Z,95935.75
2023-01-19T23:21:33.715Z,95930.63
2023-01-19T23:24:04.534Z,95926.19
2023-01-19T23:26:37.937Z,95929.69
2023-01-19T23:29:07.482Z,95933.59
2023-01-19T23:31:37.672Z,95939.28
2023-01-19T23:34:07.566Z,95933.34
2023-01-19T23:36:36.685Z,95936.44
2023-01-19T23:39:09.803Z,95943.47
2023-01-19T23:41:37.439Z,95942.81
2023-01-19T23:44:05.517Z,95950.91
2023-01-19T23:46:33.474Z,95951.44
2023-01-19T23:49:01.136Z,95957.09
2023-01-19T23:51:30.635Z,95954.66
2023-01-19T23:53:59.638Z,95952.53
2023-01-19T23:56:30.139Z,95958.06
2023-01-19T23:58:59.579Z,95958.19
